sensor_id;sensor_type;location;lat;lon;timestamp;P1;durP1;ratioP1;P2;durP2;ratioP2
3022;SDS011;1521;53.584;9.938;2024-01-30T00:01:00;27.17;;;16.17;;
3022;SDS011;1521;53.584;9.938;2024-01-30T00:03:25;22.97;;;14.47;;
3022;SDS011;1521;53.584;9.938;2024-01-30T00:05:51;37.77;;;14.67;;
3022;SDS011;1521;53.584;9.938;2024-01-30T00:08:17;26.47;;;14.60;;
3022;SDS011;1521;53.584;9.938;2024-01-30T00:10:42;22.23;;;14.37;;
3022;SDS011;1521;53.584;9.938;2024-01-30T00:13:08;24.93;;;14.40;;
3022;SDS011;1521;53.584;9.938;2024-01-30T00:15:34;20.37;;;13.07;;
3022;SDS011;1521;53.584;9.938;2024-01-30T00:18:00;21.20;;;13.87;;
3022;SDS011;1521;53.584;9.938;2024-01-30T00:20:26;18.67;;;12.47;;
3022;SDS011;1521;53.584;9.938;2024-01-30T00:22:51;20.90;;;13.40;;
3022;SDS011;1521;53.584;9.938;2024-01-30T00:25:17;25.10;;;13.53;;
3022;SDS011;1521;53.584;9.938;2024-01-30T00:27:42;21.33;;;14.43;;
3022;SDS011;1521;53.584;9.938;2024-01-30T00:30:08;22.90;;;13.57;;
3022;SDS011;1521;53.584;9.938;2024-01-30T00:32:34;18.70;;;12.10;;
3022;SDS011;1521;53.584;9.938;2024-01-30T00:35:00;23.07;;;13.67;;
3022;SDS011;1521;53.584;9.938;2024-01-30T00:37:25;20.60;;;13.60;;
3022;SDS011;1521;53.584;9.938;2024-01-30T00:39:51;20.27;;;13.07;;
3022;SDS011;1521;53.584;9.938;2024-01-30T00:42:17;18.67;;;12.60;;
3022;SDS011;1521;53.584;9.938;2024-01-30T00:44:42;19.80;;;13.07;;
3022;SDS011;1521;53.584;9.938;2024-01-30T00:47:08;25.40;;;12.60;;
3022;SDS011;1521;53.584;9.938;2024-01-30T00:50:20;21.23;;;14.20;;
3022;SDS011;1521;53.584;9.938;2024-01-30T00:52:46;24.27;;;12.83;;
3022;SDS011;1521;53.584;9.938;2024-01-30T00:55:11;23.47;;;13.47;;
3022;SDS011;1521;53.584;9.938;2024-01-30T00:57:37;25.07;;;13.30;;
3022;SDS011;1521;53.584;9.938;2024-01-30T01:00:03;18.57;;;13.00;;
3022;SDS011;1521;53.584;9.938;2024-01-30T01:02:31;24.63;;;14.13;;
3022;SDS011;1521;53.584;9.938;2024-01-30T01:04:57;19.30;;;13.00;;
3022;SDS011;1521;53.584;9.938;2024-01-30T01:07:22;23.63;;;13.60;;
3022;SDS011;1521;53.584;9.938;2024-01-30T01:09:48;27.50;;;16.50;;
3022;SDS011;1521;53.584;9.938;2024-01-30T01:12:13;23.03;;;14.60;;
3022;SDS011;1521;53.584;9.938;2024-01-30T01:14:39;23.87;;;14.70;;
3022;SDS011;1521;53.584;9.938;2024-01-30T01:17:04;20.93;;;13.90;;
3022;SDS011;1521;53.584;9.938;2024-01-30T01:19:30;20.20;;;13.57;;
3022;SDS011;1521;53.584;9.938;2024-01-30T01:21:55;24.90;;;13.97;;
3022;SDS011;1521;53.584;9.938;2024-01-30T01:24:21;21.67;;;11.57;;
3022;SDS011;1521;53.584;9.938;2024-01-30T01:26:47;20.83;;;13.00;;
3022;SDS011;1521;53.584;9.938;2024-01-30T01:29:13;22.33;;;12.77;;
3022;SDS011;1521;53.584;9.938;2024-01-30T01:31:38;20.47;;;13.50;;
3022;SDS011;1521;53.584;9.938;2024-01-30T01:34:08;21.50;;;13.33;;
3022;SDS011;1521;53.584;9.938;2024-01-30T01:36:37;16.90;;;10.77;;
3022;SDS011;1521;53.584;9.938;2024-01-30T01:39:03;21.80;;;13.10;;
3022;SDS011;1521;53.584;9.938;2024-01-30T01:41:30;21.43;;;12.40;;
3022;SDS011;1521;53.584;9.938;2024-01-30T01:43:59;20.90;;;12.63;;
3022;SDS011;1521;53.584;9.938;2024-01-30T01:46:30;24.97;;;13.07;;
3022;SDS011;1521;53.584;9.938;2024-01-30T01:48:57;22.87;;;13.57;;
3022;SDS011;1521;53.584;9.938;2024-01-30T01:51:25;22.03;;;13.40;;
3022;SDS011;1521;53.584;9.938;2024-01-30T01:53:53;18.37;;;12.03;;
3022;SDS011;1521;53.584;9.938;2024-01-30T01:56:21;18.67;;;12.93;;
3022;SDS011;1521;53.584;9.938;2024-01-30T01:58:48;21.80;;;12.80;;
3022;SDS011;1521;53.584;9.938;2024-01-30T02:01:14;22.53;;;12.70;;
3022;SDS011;1521;53.584;9.938;2024-01-30T02:03:43;20.73;;;13.27;;
3022;SDS011;1521;53.584;9.938;2024-01-30T02:06:10;24.83;;;13.43;;
3022;SDS011;1521;53.584;9.938;2024-01-30T02:08:37;21.33;;;13.17;;
3022;SDS011;1521;53.584;9.938;2024-01-30T02:11:03;26.00;;;13.87;;
3022;SDS011;1521;53.584;9.938;2024-01-30T02:13:28;19.50;;;12.80;;
3022;SDS011;1521;53.584;9.938;2024-01-30T02:15:54;20.30;;;12.00;;
3022;SDS011;1521;53.584;9.938;2024-01-30T02:18:20;21.90;;;12.10;;
3022;SDS011;1521;53.584;9.938;2024-01-30T02:20:46;43.83;;;13.40;;
3022;SDS011;1521;53.584;9.938;2024-01-30T02:23:12;18.00;;;13.03;;
3022;SDS011;1521;53.584;9.938;2024-01-30T02:25:40;22.13;;;13.50;;
3022;SDS011;1521;53.584;9.938;2024-01-30T02:28:13;20.20;;;12.60;;
3022;SDS011;1521;53.584;9.938;2024-01-30T02:30:39;21.27;;;12.93;;
3022;SDS011;1521;53.584;9.938;2024-01-30T02:33:05;17.70;;;12.03;;
3022;SDS011;1521;53.584;9.938;2024-01-30T02:35:30;16.10;;;10.90;;
3022;SDS011;1521;53.584;9.938;2024-01-30T02:37:56;19.27;;;12.07;;
3022;SDS011;1521;53.584;9.938;2024-01-30T02:40:22;19.60;;;11.50;;
3022;SDS011;1521;53.584;9.938;2024-01-30T02:42:47;20.87;;;12.67;;
3022;SDS011;1521;53.584;9.938;2024-01-30T02:45:13;21.27;;;11.53;;
3022;SDS011;1521;53.584;9.938;2024-01-30T02:47:39;16.33;;;11.73;;
3022;SDS011;1521;53.584;9.938;2024-01-30T02:50:05;17.87;;;11.87;;
3022;SDS011;1521;53.584;9.938;2024-01-30T02:52:31;18.97;;;11.30;;
3022;SDS011;1521;53.584;9.938;2024-01-30T02:54:57;17.67;;;11.50;;
3022;SDS011;1521;53.584;9.938;2024-01-30T02:57:22;19.10;;;11.83;;
3022;SDS011;1521;53.584;9.938;2024-01-30T02:59:48;26.07;;;11.67;;
3022;SDS011;1521;53.584;9.938;2024-01-30T03:02:13;22.80;;;11.77;;
3022;SDS011;1521;53.584;9.938;2024-01-30T03:04:42;19.53;;;11.90;;
3022;SDS011;1521;53.584;9.938;2024-01-30T03:07:07;19.10;;;11.50;;
3022;SDS011;1521;53.584;9.938;2024-01-30T03:09:33;16.33;;;10.80;;
3022;SDS011;1521;53.584;9.938;2024-01-30T03:11:59;16.87;;;11.10;;
3022;SDS011;1521;53.584;9.938;2024-01-30T03:14:24;16.90;;;11.63;;
3022;SDS011;1521;53.584;9.938;2024-01-30T03:16:50;15.57;;;11.03;;
3022;SDS011;1521;53.584;9.938;2024-01-30T03:19:15;18.27;;;11.60;;
3022;SDS011;1521;53.584;9.938;2024-01-30T03:21:41;18.57;;;11.13;;
3022;SDS011;1521;53.584;9.938;2024-01-30T03:24:06;18.67;;;11.27;;
3022;SDS011;1521;53.584;9.938;2024-01-30T03:26:32;16.00;;;11.87;;
3022;SDS011;1521;53.584;9.938;2024-01-30T03:28:57;15.63;;;10.03;;
3022;SDS011;1521;53.584;9.938;2024-01-30T03:31:23;19.83;;;11.97;;
3022;SDS011;1521;53.584;9.938;2024-01-30T03:33:49;19.87;;;12.43;;
3022;SDS011;1521;53.584;9.938;2024-01-30T03:36:15;17.37;;;11.37;;
3022;SDS011;1521;53.584;9.938;2024-01-30T03:38:40;18.30;;;11.30;;
3022;SDS011;1521;53.584;9.938;2024-01-30T03:41:09;19.00;;;11.90;;
3022;SDS011;1521;53.584;9.938;2024-01-30T03:43:35;19.90;;;12.10;;
3022;SDS011;1521;53.584;9.938;2024-01-30T03:46:01;19.40;;;11.80;;
3022;SDS011;1521;53.584;9.938;2024-01-30T03:48:28;21.70;;;13.13;;
3022;SDS011;1521;53.584;9.938;2024-01-30T03:50:53;20.30;;;12.67;;
3022;SDS011;1521;53.584;9.938;2024-01-30T03:53:19;18.17;;;12.50;;
3022;SDS011;1521;53.584;9.938;2024-01-30T03:55:45;18.30;;;12.20;;
3022;SDS011;1521;53.584;9.938;2024-01-30T03:58:10;17.17;;;12.93;;
3022;SDS011;1521;53.584;9.938;2024-01-30T04:00:36;19.37;;;12.40;;
3022;SDS011;1521;53.584;9.938;2024-01-30T04:03:02;20.07;;;12.67;;
3022;SDS011;1521;53.584;9.938;2024-01-30T04:05:28;21.53;;;12.60;;
3022;SDS011;1521;53.584;9.938;2024-01-30T04:07:53;19.50;;;13.13;;
3022;SDS011;1521;53.584;9.938;2024-01-30T04:10:19;22.83;;;14.07;;
3022;SDS011;1521;53.584;9.938;2024-01-30T04:12:44;29.10;;;15.03;;
3022;SDS011;1521;53.584;9.938;2024-01-30T04:15:10;20.73;;;13.17;;
3022;SDS011;1521;53.584;9.938;2024-01-30T04:17:36;24.23;;;13.43;;
3022;SDS011;1521;53.584;9.938;2024-01-30T04:20:01;20.07;;;12.80;;
3022;SDS011;1521;53.584;9.938;2024-01-30T04:22:27;21.73;;;13.93;;
3022;SDS011;1521;53.584;9.938;2024-01-30T04:24:53;18.70;;;13.20;;
3022;SDS011;1521;53.584;9.938;2024-01-30T04:27:18;28.83;;;14.37;;
3022;SDS011;1521;53.584;9.938;2024-01-30T04:29:44;21.17;;;13.13;;
3022;SDS011;1521;53.584;9.938;2024-01-30T04:32:09;21.33;;;13.30;;
3022;SDS011;1521;53.584;9.938;2024-01-30T04:34:36;20.50;;;14.40;;
3022;SDS011;1521;53.584;9.938;2024-01-30T04:37:02;22.37;;;13.57;;
3022;SDS011;1521;53.584;9.938;2024-01-30T04:39:27;21.10;;;13.40;;
3022;SDS011;1521;53.584;9.938;2024-01-30T04:41:53;23.97;;;14.00;;
3022;SDS011;1521;53.584;9.938;2024-01-30T04:44:19;22.40;;;14.60;;
3022;SDS011;1521;53.584;9.938;2024-01-30T04:46:44;20.33;;;14.00;;
3022;SDS011;1521;53.584;9.938;2024-01-30T04:49:10;19.63;;;12.97;;
3022;SDS011;1521;53.584;9.938;2024-01-30T04:51:36;18.50;;;13.50;;
3022;SDS011;1521;53.584;9.938;2024-01-30T04:54:01;24.20;;;14.13;;
3022;SDS011;1521;53.584;9.938;2024-01-30T04:56:27;21.77;;;13.60;;
3022;SDS011;1521;53.584;9.938;2024-01-30T04:58:53;21.80;;;14.10;;
3022;SDS011;1521;53.584;9.938;2024-01-30T05:01:18;19.37;;;13.60;;
3022;SDS011;1521;53.584;9.938;2024-01-30T05:03:44;23.33;;;13.80;;
3022;SDS011;1521;53.584;9.938;2024-01-30T05:06:09;20.70;;;14.30;;
3022;SDS011;1521;53.584;9.938;2024-01-30T05:08:35;23.30;;;14.97;;
3022;SDS011;1521;53.584;9.938;2024-01-30T05:11:06;22.27;;;14.43;;
3022;SDS011;1521;53.584;9.938;2024-01-30T05:13:32;23.80;;;14.43;;
3022;SDS011;1521;53.584;9.938;2024-01-30T05:15:58;22.17;;;13.67;;
3022;SDS011;1521;53.584;9.938;2024-01-30T05:18:23;23.10;;;14.97;;
3022;SDS011;1521;53.584;9.938;2024-01-30T05:20:50;23.17;;;13.93;;
3022;SDS011;1521;53.584;9.938;2024-01-30T05:23:15;21.93;;;14.13;;
3022;SDS011;1521;53.584;9.938;2024-01-30T05:25:41;17.43;;;13.17;;
3022;SDS011;1521;53.584;9.938;2024-01-30T05:28:07;19.47;;;13.80;;
3022;SDS011;1521;53.584;9.938;2024-01-30T05:30:32;27.40;;;15.37;;
3022;SDS011;1521;53.584;9.938;2024-01-30T05:32:58;20.57;;;14.10;;
3022;SDS011;1521;53.584;9.938;2024-01-30T05:35:24;28.07;;;16.03;;
3022;SDS011;1521;53.584;9.938;2024-01-30T05:37:49;22.60;;;14.17;;
3022;SDS011;1521;53.584;9.938;2024-01-30T05:40:15;23.53;;;14.43;;
3022;SDS011;1521;53.584;9.938;2024-01-30T05:42:41;23.40;;;13.60;;
3022;SDS011;1521;53.584;9.938;2024-01-30T05:45:07;25.20;;;15.13;;
3022;SDS011;1521;53.584;9.938;2024-01-30T05:47:33;21.83;;;15.10;;
3022;SDS011;1521;53.584;9.938;2024-01-30T05:49:59;23.87;;;15.30;;
3022;SDS011;1521;53.584;9.938;2024-01-30T05:52:25;24.50;;;14.73;;
3022;SDS011;1521;53.584;9.938;2024-01-30T05:54:50;27.57;;;16.30;;
3022;SDS011;1521;53.584;9.938;2024-01-30T05:57:16;26.67;;;14.17;;
3022;SDS011;1521;53.584;9.938;2024-01-30T05:59:42;27.03;;;15.07;;
3022;SDS011;1521;53.584;9.938;2024-01-30T06:02:10;22.33;;;15.10;;
3022;SDS011;1521;53.584;9.938;2024-01-30T06:04:36;30.00;;;15.53;;
3022;SDS011;1521;53.584;9.938;2024-01-30T06:07:01;30.13;;;14.60;;
3022;SDS011;1521;53.584;9.938;2024-01-30T06:09:27;24.73;;;14.93;;
3022;SDS011;1521;53.584;9.938;2024-01-30T06:11:54;24.50;;;14.50;;
3022;SDS011;1521;53.584;9.938;2024-01-30T06:14:19;22.20;;;14.27;;
3022;SDS011;1521;53.584;9.938;2024-01-30T06:16:45;24.07;;;15.33;;
3022;SDS011;1521;53.584;9.938;2024-01-30T06:19:11;23.67;;;15.63;;
3022;SDS011;1521;53.584;9.938;2024-01-30T06:21:36;27.93;;;15.40;;
3022;SDS011;1521;53.584;9.938;2024-01-30T06:24:03;23.77;;;14.60;;
3022;SDS011;1521;53.584;9.938;2024-01-30T06:26:29;25.33;;;14.40;;
3022;SDS011;1521;53.584;9.938;2024-01-30T06:28:54;24.43;;;14.37;;
3022;SDS011;1521;53.584;9.938;2024-01-30T06:31:20;25.83;;;15.43;;
3022;SDS011;1521;53.584;9.938;2024-01-30T06:33:49;28.73;;;16.17;;
3022;SDS011;1521;53.584;9.938;2024-01-30T06:36:15;22.80;;;14.67;;
3022;SDS011;1521;53.584;9.938;2024-01-30T06:38:41;22.90;;;13.30;;
3022;SDS011;1521;53.584;9.938;2024-01-30T06:41:06;24.93;;;15.30;;
3022;SDS011;1521;53.584;9.938;2024-01-30T06:43:32;24.60;;;14.90;;
3022;SDS011;1521;53.584;9.938;2024-01-30T06:45:57;30.80;;;15.70;;
3022;SDS011;1521;53.584;9.938;2024-01-30T06:48:24;27.17;;;15.03;;
3022;SDS011;1521;53.584;9.938;2024-01-30T06:50:50;24.50;;;15.10;;
3022;SDS011;1521;53.584;9.938;2024-01-30T06:53:18;27.93;;;14.30;;
3022;SDS011;1521;53.584;9.938;2024-01-30T06:55:44;25.70;;;15.40;;
3022;SDS011;1521;53.584;9.938;2024-01-30T06:58:10;29.30;;;16.17;;
3022;SDS011;1521;53.584;9.938;2024-01-30T07:00:36;26.43;;;15.90;;
3022;SDS011;1521;53.584;9.938;2024-01-30T07:03:01;27.73;;;15.50;;
3022;SDS011;1521;53.584;9.938;2024-01-30T07:05:27;26.03;;;15.53;;
3022;SDS011;1521;53.584;9.938;2024-01-30T07:07:52;28.53;;;15.53;;
3022;SDS011;1521;53.584;9.938;2024-01-30T07:10:18;28.63;;;16.27;;
3022;SDS011;1521;53.584;9.938;2024-01-30T07:12:44;27.00;;;15.17;;
3022;SDS011;1521;53.584;9.938;2024-01-30T07:15:09;25.00;;;14.50;;
3022;SDS011;1521;53.584;9.938;2024-01-30T07:17:35;25.30;;;16.30;;
3022;SDS011;1521;53.584;9.938;2024-01-30T07:20:01;26.57;;;16.00;;
3022;SDS011;1521;53.584;9.938;2024-01-30T07:22:29;26.57;;;15.37;;
3022;SDS011;1521;53.584;9.938;2024-01-30T07:24:56;26.43;;;15.57;;
3022;SDS011;1521;53.584;9.938;2024-01-30T07:27:22;26.30;;;16.13;;
3022;SDS011;1521;53.584;9.938;2024-01-30T07:29:47;25.60;;;15.80;;
3022;SDS011;1521;53.584;9.938;2024-01-30T07:32:13;27.77;;;16.97;;
3022;SDS011;1521;53.584;9.938;2024-01-30T07:34:39;26.77;;;15.50;;
3022;SDS011;1521;53.584;9.938;2024-01-30T07:37:04;24.60;;;15.33;;
3022;SDS011;1521;53.584;9.938;2024-01-30T07:39:32;27.50;;;15.10;;
3022;SDS011;1521;53.584;9.938;2024-01-30T07:41:57;26.17;;;16.20;;
3022;SDS011;1521;53.584;9.938;2024-01-30T07:44:23;39.43;;;17.70;;
3022;SDS011;1521;53.584;9.938;2024-01-30T07:46:48;29.43;;;17.07;;
3022;SDS011;1521;53.584;9.938;2024-01-30T07:49:14;29.23;;;16.27;;
3022;SDS011;1521;53.584;9.938;2024-01-30T07:51:39;26.33;;;15.57;;
3022;SDS011;1521;53.584;9.938;2024-01-30T07:54:05;31.47;;;17.40;;
3022;SDS011;1521;53.584;9.938;2024-01-30T07:56:36;28.13;;;17.40;;
3022;SDS011;1521;53.584;9.938;2024-01-30T07:59:02;25.23;;;15.97;;
3022;SDS011;1521;53.584;9.938;2024-01-30T08:01:27;27.23;;;15.53;;
3022;SDS011;1521;53.584;9.938;2024-01-30T08:03:53;27.03;;;15.70;;
3022;SDS011;1521;53.584;9.938;2024-01-30T08:06:19;25.70;;;16.10;;
3022;SDS011;1521;53.584;9.938;2024-01-30T08:08:44;27.60;;;16.53;;
3022;SDS011;1521;53.584;9.938;2024-01-30T08:11:10;29.20;;;16.47;;
3022;SDS011;1521;53.584;9.938;2024-01-30T08:13:35;29.70;;;17.00;;
3022;SDS011;1521;53.584;9.938;2024-01-30T08:16:01;26.40;;;15.83;;
3022;SDS011;1521;53.584;9.938;2024-01-30T08:18:27;34.67;;;16.77;;
3022;SDS011;1521;53.584;9.938;2024-01-30T08:20:52;26.17;;;16.20;;
3022;SDS011;1521;53.584;9.938;2024-01-30T08:23:18;25.07;;;17.00;;
3022;SDS011;1521;53.584;9.938;2024-01-30T08:25:43;27.47;;;15.73;;
3022;SDS011;1521;53.584;9.938;2024-01-30T08:28:09;31.97;;;16.80;;
3022;SDS011;1521;53.584;9.938;2024-01-30T08:30:34;33.70;;;16.03;;
3022;SDS011;1521;53.584;9.938;2024-01-30T08:33:00;25.40;;;14.83;;
3022;SDS011;1521;53.584;9.938;2024-01-30T08:35:26;26.43;;;15.93;;
3022;SDS011;1521;53.584;9.938;2024-01-30T08:37:51;27.03;;;15.97;;
3022;SDS011;1521;53.584;9.938;2024-01-30T08:40:19;26.00;;;15.30;;
3022;SDS011;1521;53.584;9.938;2024-01-30T08:42:45;27.40;;;17.03;;
3022;SDS011;1521;53.584;9.938;2024-01-30T08:45:10;28.67;;;16.13;;
3022;SDS011;1521;53.584;9.938;2024-01-30T08:47:36;24.47;;;15.83;;
3022;SDS011;1521;53.584;9.938;2024-01-30T08:50:02;25.93;;;15.40;;
3022;SDS011;1521;53.584;9.938;2024-01-30T08:52:27;21.10;;;14.47;;
3022;SDS011;1521;53.584;9.938;2024-01-30T08:54:53;33.30;;;15.33;;
3022;SDS011;1521;53.584;9.938;2024-01-30T08:57:19;28.07;;;16.27;;
3022;SDS011;1521;53.584;9.938;2024-01-30T08:59:45;27.83;;;15.50;;
3022;SDS011;1521;53.584;9.938;2024-01-30T09:02:11;31.27;;;15.27;;
3022;SDS011;1521;53.584;9.938;2024-01-30T09:04:41;28.40;;;15.57;;
3022;SDS011;1521;53.584;9.938;2024-01-30T09:07:06;27.70;;;15.40;;
3022;SDS011;1521;53.584;9.938;2024-01-30T09:09:34;27.00;;;16.07;;
3022;SDS011;1521;53.584;9.938;2024-01-30T09:11:59;25.67;;;15.67;;
3022;SDS011;1521;53.584;9.938;2024-01-30T09:14:29;29.90;;;15.67;;
3022;SDS011;1521;53.584;9.938;2024-01-30T09:16:55;26.50;;;14.70;;
3022;SDS011;1521;53.584;9.938;2024-01-30T09:19:21;26.50;;;14.40;;
3022;SDS011;1521;53.584;9.938;2024-01-30T09:21:47;23.57;;;14.80;;
3022;SDS011;1521;53.584;9.938;2024-01-30T09:24:12;26.80;;;15.43;;
3022;SDS011;1521;53.584;9.938;2024-01-30T09:26:38;24.27;;;14.40;;
3022;SDS011;1521;53.584;9.938;2024-01-30T09:29:03;32.90;;;15.17;;
3022;SDS011;1521;53.584;9.938;2024-01-30T09:31:29;23.20;;;15.80;;
3022;SDS011;1521;53.584;9.938;2024-01-30T09:33:54;28.87;;;15.20;;
3022;SDS011;1521;53.584;9.938;2024-01-30T09:36:20;24.47;;;15.40;;
3022;SDS011;1521;53.584;9.938;2024-01-30T09:38:46;27.43;;;16.10;;
3022;SDS011;1521;53.584;9.938;2024-01-30T09:41:11;22.20;;;14.77;;
3022;SDS011;1521;53.584;9.938;2024-01-30T09:43:38;24.37;;;16.30;;
3022;SDS011;1521;53.584;9.938;2024-01-30T09:46:07;24.37;;;15.13;;
3022;SDS011;1521;53.584;9.938;2024-01-30T09:48:38;31.50;;;15.23;;
3022;SDS011;1521;53.584;9.938;2024-01-30T09:51:06;32.07;;;15.70;;
3022;SDS011;1521;53.584;9.938;2024-01-30T09:53:33;24.47;;;15.47;;
3022;SDS011;1521;53.584;9.938;2024-01-30T09:55:58;23.70;;;16.10;;
3022;SDS011;1521;53.584;9.938;2024-01-30T09:58:26;29.33;;;16.63;;
3022;SDS011;1521;53.584;9.938;2024-01-30T10:00:51;25.50;;;15.30;;
3022;SDS011;1521;53.584;9.938;2024-01-30T10:03:18;28.43;;;15.70;;
3022;SDS011;1521;53.584;9.938;2024-01-30T10:05:45;28.07;;;15.73;;
3022;SDS011;1521;53.584;9.938;2024-01-30T10:08:19;35.47;;;17.57;;
3022;SDS011;1521;53.584;9.938;2024-01-30T10:10:46;26.90;;;16.27;;
3022;SDS011;1521;53.584;9.938;2024-01-30T10:13:12;25.10;;;15.87;;
3022;SDS011;1521;53.584;9.938;2024-01-30T10:15:38;24.90;;;16.30;;
3022;SDS011;1521;53.584;9.938;2024-01-30T10:18:04;26.80;;;16.50;;
3022;SDS011;1521;53.584;9.938;2024-01-30T10:20:31;25.50;;;15.73;;
3022;SDS011;1521;53.584;9.938;2024-01-30T10:22:57;31.93;;;16.00;;
3022;SDS011;1521;53.584;9.938;2024-01-30T10:25:25;28.30;;;15.77;;
3022;SDS011;1521;53.584;9.938;2024-01-30T10:27:54;29.67;;;17.00;;
3022;SDS011;1521;53.584;9.938;2024-01-30T10:30:23;26.23;;;17.20;;
3022;SDS011;1521;53.584;9.938;2024-01-30T10:32:49;26.83;;;15.80;;
3022;SDS011;1521;53.584;9.938;2024-01-30T10:35:15;33.03;;;16.27;;
3022;SDS011;1521;53.584;9.938;2024-01-30T10:37:43;24.60;;;16.50;;
3022;SDS011;1521;53.584;9.938;2024-01-30T10:40:13;29.33;;;17.23;;
3022;SDS011;1521;53.584;9.938;2024-01-30T10:42:40;29.30;;;16.10;;
3022;SDS011;1521;53.584;9.938;2024-01-30T10:45:09;28.03;;;16.93;;
3022;SDS011;1521;53.584;9.938;2024-01-30T10:47:39;29.63;;;15.50;;
3022;SDS011;1521;53.584;9.938;2024-01-30T10:50:07;31.87;;;16.70;;
3022;SDS011;1521;53.584;9.938;2024-01-30T10:52:33;23.83;;;15.40;;
3022;SDS011;1521;53.584;9.938;2024-01-30T10:54:59;33.20;;;15.30;;
3022;SDS011;1521;53.584;9.938;2024-01-30T10:57:26;35.87;;;16.50;;
3022;SDS011;1521;53.584;9.938;2024-01-30T10:59:53;29.90;;;16.57;;
3022;SDS011;1521;53.584;9.938;2024-01-30T11:02:22;28.73;;;15.90;;
3022;SDS011;1521;53.584;9.938;2024-01-30T11:04:49;30.17;;;16.37;;
3022;SDS011;1521;53.584;9.938;2024-01-30T11:07:18;26.27;;;16.30;;
3022;SDS011;1521;53.584;9.938;2024-01-30T11:09:51;29.73;;;16.33;;
3022;SDS011;1521;53.584;9.938;2024-01-30T11:12:31;27.30;;;15.53;;
3022;SDS011;1521;53.584;9.938;2024-01-30T11:15:07;25.23;;;14.90;;
3022;SDS011;1521;53.584;9.938;2024-01-30T11:20:12;25.07;;;15.40;;
3022;SDS011;1521;53.584;9.938;2024-01-30T11:22:49;30.63;;;16.70;;
3022;SDS011;1521;53.584;9.938;2024-01-30T11:25:17;24.80;;;15.10;;
3022;SDS011;1521;53.584;9.938;2024-01-30T11:27:44;23.27;;;14.57;;
3022;SDS011;1521;53.584;9.938;2024-01-30T11:30:11;22.43;;;14.37;;
3022;SDS011;1521;53.584;9.938;2024-01-30T11:35:36;24.70;;;14.60;;
3022;SDS011;1521;53.584;9.938;2024-01-30T11:38:04;24.10;;;15.23;;
3022;SDS011;1521;53.584;9.938;2024-01-30T11:40:31;24.40;;;14.60;;
3022;SDS011;1521;53.584;9.938;2024-01-30T11:42:58;28.40;;;14.23;;
3022;SDS011;1521;53.584;9.938;2024-01-30T11:45:25;23.60;;;15.27;;
3022;SDS011;1521;53.584;9.938;2024-01-30T11:47:52;22.13;;;13.40;;
3022;SDS011;1521;53.584;9.938;2024-01-30T11:50:18;26.23;;;14.47;;
3022;SDS011;1521;53.584;9.938;2024-01-30T11:52:43;25.13;;;14.83;;
3022;SDS011;1521;53.584;9.938;2024-01-30T11:55:09;25.20;;;12.60;;
3022;SDS011;1521;53.584;9.938;2024-01-30T11:57:35;18.73;;;12.07;;
3022;SDS011;1521;53.584;9.938;2024-01-30T12:00:02;19.77;;;12.40;;
3022;SDS011;1521;53.584;9.938;2024-01-30T12:02:38;19.60;;;12.23;;
3022;SDS011;1521;53.584;9.938;2024-01-30T12:05:08;20.30;;;12.83;;
3022;SDS011;1521;53.584;9.938;2024-01-30T12:07:36;25.10;;;12.30;;
3022;SDS011;1521;53.584;9.938;2024-01-30T12:10:02;17.60;;;11.93;;
3022;SDS011;1521;53.584;9.938;2024-01-30T12:12:28;21.70;;;11.40;;
3022;SDS011;1521;53.584;9.938;2024-01-30T12:14:55;18.47;;;11.77;;
3022;SDS011;1521;53.584;9.938;2024-01-30T12:17:27;19.70;;;11.67;;
3022;SDS011;1521;53.584;9.938;2024-01-30T12:20:06;23.23;;;12.67;;
3022;SDS011;1521;53.584;9.938;2024-01-30T12:22:37;18.50;;;11.67;;
3022;SDS011;1521;53.584;9.938;2024-01-30T12:25:07;18.33;;;11.00;;
3022;SDS011;1521;53.584;9.938;2024-01-30T12:27:38;17.97;;;11.70;;
3022;SDS011;1521;53.584;9.938;2024-01-30T12:30:07;15.87;;;10.60;;
3022;SDS011;1521;53.584;9.938;2024-01-30T12:32:37;18.73;;;11.70;;
3022;SDS011;1521;53.584;9.938;2024-01-30T12:35:14;16.90;;;11.17;;
3022;SDS011;1521;53.584;9.938;2024-01-30T12:37:41;16.77;;;11.63;;
3022;SDS011;1521;53.584;9.938;2024-01-30T12:40:08;17.67;;;11.13;;
3022;SDS011;1521;53.584;9.938;2024-01-30T12:42:35;23.60;;;11.93;;
3022;SDS011;1521;53.584;9.938;2024-01-30T12:45:04;18.73;;;13.00;;
3022;SDS011;1521;53.584;9.938;2024-01-30T12:47:30;23.47;;;12.33;;
3022;SDS011;1521;53.584;9.938;2024-01-30T12:49:56;18.80;;;12.70;;
3022;SDS011;1521;53.584;9.938;2024-01-30T12:52:22;22.23;;;12.13;;
3022;SDS011;1521;53.584;9.938;2024-01-30T12:54:48;17.03;;;11.87;;
3022;SDS011;1521;53.584;9.938;2024-01-30T12:57:14;22.83;;;12.00;;
3022;SDS011;1521;53.584;9.938;2024-01-30T12:59:40;20.80;;;11.90;;
3022;SDS011;1521;53.584;9.938;2024-01-30T13:02:05;19.33;;;12.40;;
3022;SDS011;1521;53.584;9.938;2024-01-30T13:04:32;18.40;;;11.87;;
3022;SDS011;1521;53.584;9.938;2024-01-30T13:06:58;18.47;;;12.47;;
3022;SDS011;1521;53.584;9.938;2024-01-30T13:09:23;19.90;;;12.30;;
3022;SDS011;1521;53.584;9.938;2024-01-30T13:11:49;18.67;;;12.47;;
3022;SDS011;1521;53.584;9.938;2024-01-30T13:14:16;19.20;;;12.77;;
3022;SDS011;1521;53.584;9.938;2024-01-30T13:16:42;19.40;;;12.97;;
3022;SDS011;1521;53.584;9.938;2024-01-30T13:19:08;21.13;;;11.90;;
3022;SDS011;1521;53.584;9.938;2024-01-30T13:21:33;20.63;;;12.43;;
3022;SDS011;1521;53.584;9.938;2024-01-30T13:23:59;23.17;;;12.30;;
3022;SDS011;1521;53.584;9.938;2024-01-30T13:26:25;26.00;;;12.77;;
3022;SDS011;1521;53.584;9.938;2024-01-30T13:28:51;23.50;;;13.17;;
3022;SDS011;1521;53.584;9.938;2024-01-30T13:31:16;20.60;;;11.80;;
3022;SDS011;1521;53.584;9.938;2024-01-30T13:33:42;22.70;;;13.40;;
3022;SDS011;1521;53.584;9.938;2024-01-30T13:36:09;18.90;;;11.87;;
3022;SDS011;1521;53.584;9.938;2024-01-30T13:38:35;19.67;;;12.23;;
3022;SDS011;1521;53.584;9.938;2024-01-30T13:41:01;20.20;;;11.80;;
3022;SDS011;1521;53.584;9.938;2024-01-30T13:43:27;23.87;;;12.67;;
3022;SDS011;1521;53.584;9.938;2024-01-30T13:45:53;20.20;;;13.00;;
3022;SDS011;1521;53.584;9.938;2024-01-30T13:48:19;21.30;;;12.87;;
3022;SDS011;1521;53.584;9.938;2024-01-30T13:50:44;19.27;;;12.13;;
3022;SDS011;1521;53.584;9.938;2024-01-30T13:53:10;23.20;;;13.03;;
3022;SDS011;1521;53.584;9.938;2024-01-30T13:55:36;20.73;;;12.50;;
3022;SDS011;1521;53.584;9.938;2024-01-30T13:58:03;19.97;;;12.57;;
3022;SDS011;1521;53.584;9.938;2024-01-30T14:00:28;19.60;;;12.17;;
3022;SDS011;1521;53.584;9.938;2024-01-30T14:02:54;20.70;;;12.17;;
3022;SDS011;1521;53.584;9.938;2024-01-30T14:05:20;21.77;;;12.97;;
3022;SDS011;1521;53.584;9.938;2024-01-30T14:07:49;17.90;;;10.70;;
3022;SDS011;1521;53.584;9.938;2024-01-30T14:10:16;23.63;;;12.97;;
3022;SDS011;1521;53.584;9.938;2024-01-30T14:12:42;19.73;;;12.00;;
3022;SDS011;1521;53.584;9.938;2024-01-30T14:15:09;19.50;;;11.93;;
3022;SDS011;1521;53.584;9.938;2024-01-30T14:17:35;22.73;;;12.90;;
3022;SDS011;1521;53.584;9.938;2024-01-30T14:20:01;19.20;;;12.13;;
3022;SDS011;1521;53.584;9.938;2024-01-30T14:22:28;19.10;;;11.60;;
3022;SDS011;1521;53.584;9.938;2024-01-30T14:24:53;25.20;;;12.60;;
3022;SDS011;1521;53.584;9.938;2024-01-30T14:27:19;19.90;;;11.77;;
3022;SDS011;1521;53.584;9.938;2024-01-30T14:29:44;20.23;;;12.43;;
3022;SDS011;1521;53.584;9.938;2024-01-30T14:32:10;21.57;;;11.83;;
3022;SDS011;1521;53.584;9.938;2024-01-30T14:34:36;18.27;;;11.90;;
3022;SDS011;1521;53.584;9.938;2024-01-30T14:37:01;18.97;;;11.43;;
3022;SDS011;1521;53.584;9.938;2024-01-30T14:39:27;19.87;;;12.40;;
3022;SDS011;1521;53.584;9.938;2024-01-30T14:41:53;27.53;;;13.80;;
3022;SDS011;1521;53.584;9.938;2024-01-30T14:44:18;20.50;;;12.00;;
3022;SDS011;1521;53.584;9.938;2024-01-30T14:46:44;22.03;;;12.50;;
3022;SDS011;1521;53.584;9.938;2024-01-30T14:49:10;18.90;;;11.57;;